Time;durP1;ratioP1;P1;durP2;ratioP2;P2;SDS_P1;SDS_P2;PMS_P1;PMS_P2;Temp;Humidity;BMP_temperature;BMP_pressure;BME280_temperature;BME280_humidity;BME280_pressure;Samples;Min_cycle;Max_cycle;Signal;HPM_P1;HPM_P2
2021/06/26 00:00:15;;;;;;;11.07;10.05;;;;;;;;;;10340469;28;20035;-85
2021/06/26 00:11:01;;;;;;;9.50;8.60;;;;;;;;;;10353307;28;19910;-85
2021/06/26 00:16:10;;;;;;;8.63;7.78;;;;;;;;;;10370302;28;20030;-86
2021/06/26 00:21:50;;;;;;;10.45;9.45;;;;;;;;;;10387257;28;20388;-85
2021/06/26 00:33:03;;;;;;;9.50;8.60;;;;;;;;;;10262215;29;20023;-85
2021/06/26 00:49:54;;;;;;;11.07;10.07;;;;;;;;;;10373286;28;20034;-87
2021/06/26 01:12:11;;;;;;;9.38;8.48;;;;;;;;;;10299479;28;20294;-87
2021/06/26 01:17:45;;;;;;;11.90;10.80;;;;;;;;;;10298820;28;20087;-87
2021/06/26 01:22:59;;;;;;;11.23;10.15;;;;;;;;;;10299556;28;20126;-87
2021/06/26 01:28:38;;;;;;;10.43;9.43;;;;;;;;;;10382085;28;20084;-87
2021/06/26 01:33:45;;;;;;;8.82;7.97;;;;;;;;;;10382092;28;20045;-86
2021/06/26 02:02:00;;;;;;;7.57;6.82;;;;;;;;;;10381655;28;20030;-87
2021/06/26 02:13:24;;;;;;;12.03;10.90;;;;;;;;;;10225994;29;20505;-87
2021/06/26 02:24:45;;;;;;;8.20;7.43;;;;;;;;;;10186466;29;20071;-86
2021/06/26 02:36:12;;;;;;;9.60;8.70;;;;;;;;;;10108701;29;20041;-87
2021/06/26 02:42:00;;;;;;;9.55;8.73;;;;;;;;;;10136855;29;20039;-87
2021/06/26 02:47:24;;;;;;;9.73;8.83;;;;;;;;;;10185637;29;20115;-87
2021/06/26 02:52:53;;;;;;;8.98;8.18;;;;;;;;;;10199532;29;20135;-86
2021/06/26 02:58:14;;;;;;;7.93;7.22;;;;;;;;;;10300024;28;20117;-87
2021/06/26 03:03:54;;;;;;;9.25;8.45;;;;;;;;;;10380613;28;20038;-87
2021/06/26 03:08:56;;;;;;;9.20;8.30;;;;;;;;;;10385569;28;20489;-87
2021/06/26 03:14:21;;;;;;;9.63;8.73;;;;;;;;;;10399817;28;20029;-87
2021/06/26 03:20:30;;;;;;;9.18;8.30;;;;;;;;;;10395559;28;20395;-86
2021/06/26 03:32:06;;;;;;;11.38;10.18;;;;;;;;;;10228515;29;20027;-87
2021/06/26 03:48:34;;;;;;;8.68;7.97;;;;;;;;;;10326413;28;20124;-87
2021/06/26 03:54:02;;;;;;;8.85;8.05;;;;;;;;;;10385638;28;20034;-87
2021/06/26 03:59:10;;;;;;;12.90;11.32;;;;;;;;;;10368603;28;20033;-86
2021/06/26 04:04:14;;;;;;;12.38;11.18;;;;;;;;;;10377082;28;20040;-87
2021/06/26 04:10:15;;;;;;;10.55;9.52;;;;;;;;;;10367350;28;20112;-86
2021/06/26 04:15:46;;;;;;;9.25;8.38;;;;;;;;;;10386132;28;20069;-85
2021/06/26 04:21:48;;;;;;;11.88;10.25;;;;;;;;;;10381035;28;20128;-85
2021/06/26 04:27:38;;;;;;;13.02;11.73;;;;;;;;;;10331966;28;20089;-86
2021/06/26 04:32:52;;;;;;;11.57;10.48;;;;;;;;;;10371550;28;20033;-85
2021/06/26 04:38:11;;;;;;;9.60;8.57;;;;;;;;;;10369720;28;20022;-85
2021/06/26 04:43:19;;;;;;;;;;;;;;;;;;10335397;28;20036;-85
2021/06/26 04:48:44;;;;;;;12.30;11.13;;;;;;;;;;10351519;28;20272;-85
2021/06/26 04:54:06;;;;;;;13.23;11.85;;;;;;;;;;10359142;28;20069;-84
2021/06/26 04:59:08;;;;;;;10.38;9.38;;;;;;;;;;10368963;28;20018;-84
2021/06/26 05:04:46;;;;;;;15.52;13.98;;;;;;;;;;10368034;28;20029;-85
2021/06/26 05:09:49;;;;;;;15.73;14.30;;;;;;;;;;10368038;28;20033;-85
2021/06/26 05:14:50;;;;;;;16.75;15.15;;;;;;;;;;10366849;28;20381;-85
2021/06/26 05:19:51;;;;;;;13.75;12.38;;;;;;;;;;10368080;28;20040;-84
2021/06/26 05:24:52;;;;;;;15.40;13.85;;;;;;;;;;10383820;28;20486;-85
2021/06/26 05:29:53;;;;;;;12.93;11.63;;;;;;;;;;10385201;28;20030;-85
2021/06/26 05:34:54;;;;;;;14.38;12.88;;;;;;;;;;10384944;28;20034;-85
2021/06/26 05:39:55;;;;;;;17.63;15.70;;;;;;;;;;10368117;28;20041;-85
2021/06/26 05:44:56;;;;;;;11.95;10.75;;;;;;;;;;10366887;28;20029;-85
2021/06/26 05:49:57;;;;;;;15.38;13.85;;;;;;;;;;10367298;28;20026;-85
2021/06/26 05:54:59;;;;;;;18.50;16.63;;;;;;;;;;10367149;28;20068;-85
2021/06/26 06:00:00;;;;;;;23.40;20.88;;;;;;;;;;10367601;28;20018;-84
2021/06/26 06:05:01;;;;;;;15.07;13.65;;;;;;;;;;10368266;28;20392;-84
2021/06/26 06:10:03;;;;;;;22.70;20.50;;;;;;;;;;10376318;28;20064;-84
2021/06/26 06:15:06;;;;;;;25.15;22.75;;;;;;;;;;10366399;28;20452;-84
2021/06/26 06:20:08;;;;;;;28.25;25.35;;;;;;;;;;10366605;28;20117;-85
2021/06/26 06:25:11;;;;;;;25.10;22.60;;;;;;;;;;10365696;28;20034;-86
2021/06/26 06:30:12;;;;;;;15.75;13.88;;;;;;;;;;10366190;28;20025;-85
2021/06/26 06:35:14;;;;;;;18.17;16.40;;;;;;;;;;10365448;28;20026;-85
2021/06/26 06:40:15;;;;;;;26.83;24.08;;;;;;;;;;10364204;28;20064;-85
2021/06/26 06:45:16;;;;;;;20.63;18.63;;;;;;;;;;10364767;28;20030;-86
2021/06/26 06:50:17;;;;;;;24.85;22.33;;;;;;;;;;10366034;28;20030;-86
2021/06/26 06:55:18;;;;;;;24.00;21.52;;;;;;;;;;10384917;28;20033;-85
2021/06/26 07:00:19;;;;;;;17.13;15.13;;;;;;;;;;10393874;28;20028;-82
2021/06/26 07:05:20;;;;;;;12.57;11.43;;;;;;;;;;10377040;28;20311;-85
2021/06/26 07:10:21;;;;;;;18.02;16.15;;;;;;;;;;10376361;28;20071;-84
2021/06/26 07:15:22;;;;;;;18.83;16.92;;;;;;;;;;10368049;28;20436;-84
2021/06/26 07:20:23;;;;;;;10.98;9.77;;;;;;;;;;10367399;28;20061;-84
2021/06/26 07:25:24;;;;;;;18.33;16.52;;;;;;;;;;10367540;28;20030;-84
2021/06/26 07:30:25;;;;;;;15.77;14.38;;;;;;;;;;10382682;28;20026;-83
2021/06/26 07:35:26;;;;;;;12.40;11.10;;;;;;;;;;10366073;28;20022;-83
2021/06/26 07:40:29;;;;;;;15.27;13.80;;;;;;;;;;10366090;28;20037;-84
2021/06/26 07:45:30;;;;;;;16.30;14.90;;;;;;;;;;10366897;28;20029;-83
2021/06/26 07:50:31;;;;;;;15.27;13.77;;;;;;;;;;10365595;28;20053;-84
2021/06/26 07:55:33;;;;;;;16.77;15.27;;;;;;;;;;10380933;28;20022;-83
2021/06/26 08:00:34;;;;;;;14.93;13.57;;;;;;;;;;10364856;28;20026;-84
2021/06/26 08:05:35;;;;;;;13.70;12.38;;;;;;;;;;10366064;28;20026;-84
2021/06/26 08:10:37;;;;;;;12.25;11.07;;;;;;;;;;10366687;28;20022;-83
2021/06/26 08:15:38;;;;;;;11.82;10.63;;;;;;;;;;10366606;28;20025;-82
2021/06/26 08:20:39;;;;;;;14.07;12.60;;;;;;;;;;10367130;28;20026;-83
2021/06/26 08:25:40;;;;;;;12.23;11.02;;;;;;;;;;10367192;28;20033;-82
2021/06/26 08:30:41;;;;;;;14.07;12.68;;;;;;;;;;10369126;28;20029;-81
2021/06/26 08:35:42;;;;;;;10.82;9.82;;;;;;;;;;10365863;28;20033;-83
2021/06/26 08:40:44;;;;;;;12.68;11.52;;;;;;;;;;10366278;28;20029;-82
2021/06/26 08:45:45;;;;;;;12.57;11.38;;;;;;;;;;10364908;28;20121;-82
2021/06/26 08:50:46;;;;;;;11.88;10.68;;;;;;;;;;10369361;28;20445;-84
2021/06/26 08:55:53;;;;;;;10.63;9.63;;;;;;;;;;10380790;28;20018;-85
2021/06/26 09:00:53;;;;;;;10.68;9.68;;;;;;;;;;10417813;28;20009;-84
2021/06/26 09:06:01;;;;;;;11.10;10.00;;;;;;;;;;10397445;28;20093;-84
2021/06/26 09:11:02;;;;;;;9.13;8.23;;;;;;;;;;10372833;28;20377;-85
2021/06/26 09:16:17;;;;;;;8.90;8.00;;;;;;;;;;10372325;28;20072;-86
2021/06/26 09:21:29;;;;;;;8.00;7.20;;;;;;;;;;10371961;28;20037;-84
2021/06/26 09:55:12;;;;;;;7.90;7.13;;;;;;;;;;10402928;28;20030;-84
2021/06/26 10:01:15;;;;;;;7.47;6.43;;;;;;;;;;10387462;28;20538;-82
2021/06/26 10:06:17;;;;;;;7.25;6.57;;;;;;;;;;10395304;28;20037;-85
2021/06/26 10:11:18;;;;;;;8.07;6.80;;;;;;;;;;10388939;28;20026;-84
2021/06/26 10:16:20;;;;;;;7.40;6.55;;;;;;;;;;10366677;28;20318;-83
2021/06/26 10:21:21;;;;;;;8.60;7.18;;;;;;;;;;10364187;28;20105;-83
2021/06/26 10:26:25;;;;;;;7.82;7.00;;;;;;;;;;10363065;28;20026;-84
2021/06/26 10:31:29;;;;;;;7.35;6.70;;;;;;;;;;10368830;28;20034;-85
2021/06/26 10:36:34;;;;;;;7.90;7.05;;;;;;;;;;10372359;28;20025;-84
2021/06/26 10:41:39;;;;;;;7.47;6.78;;;;;;;;;;10396505;28;20034;-81
2021/06/26 10:46:47;;;;;;;8.07;6.53;;;;;;;;;;10501742;23;20037;-83
2021/06/26 10:52:23;;;;;;;7.80;7.00;;;;;;;;;;10463625;28;20028;-79
2021/06/26 10:57:29;;;;;;;7.38;6.65;;;;;;;;;;10367148;28;20035;-83
2021/06/26 11:03:14;;;;;;;7.63;6.97;;;;;;;;;;10324660;28;20087;-82
2021/06/26 11:20:20;;;;;;;7.47;6.40;;;;;;;;;;10203775;29;20438;-83
2021/06/26 11:25:25;;;;;;;9.13;7.30;;;;;;;;;;10315474;28;20045;-85
2021/06/26 11:30:50;;;;;;;6.93;6.32;;;;;;;;;;10427917;28;20030;-83
2021/06/26 11:35:52;;;;;;;7.47;6.60;;;;;;;;;;10427080;28;20055;-83
2021/06/26 11:41:29;;;;;;;7.82;7.10;;;;;;;;;;10410490;28;20045;-83
2021/06/26 17:06:05;;;;;;;6.13;5.63;;;;;;;;;;10476161;28;20032;-86
2021/06/26 17:11:37;;;;;;;6.07;5.57;;;;;;;;;;10470573;28;20067;-86
2021/06/26 17:17:17;;;;;;;6.47;5.88;;;;;;;;;;10478256;28;20025;-86
2021/06/26 17:22:18;;;;;;;6.07;5.57;;;;;;;;;;10447669;28;20486;-87
2021/06/26 17:27:19;;;;;;;6.90;6.20;;;;;;;;;;10446195;28;20068;-87
2021/06/26 17:32:20;;;;;;;6.50;5.90;;;;;;;;;;10447805;28;20100;-88
2021/06/26 17:37:23;;;;;;;7.43;5.85;;;;;;;;;;10446240;28;20025;-87
2021/06/26 17:42:28;;;;;;;6.30;5.70;;;;;;;;;;10443234;28;20041;-87
2021/06/26 17:47:29;;;;;;;6.22;5.68;;;;;;;;;;10443079;28;20047;-87
2021/06/26 17:52:30;;;;;;;7.05;6.45;;;;;;;;;;10443217;28;20119;-87
2021/06/26 17:57:49;;;;;;;7.10;6.43;;;;;;;;;;10459893;28;20483;-87
2021/06/26 18:02:56;;;;;;;7.43;6.17;;;;;;;;;;10455012;28;20491;-87
2021/06/26 18:08:00;;;;;;;6.18;5.68;;;;;;;;;;10443935;28;20099;-88
2021/06/26 18:13:02;;;;;;;6.53;6.03;;;;;;;;;;10440758;28;20041;-87
2021/06/26 18:18:03;;;;;;;6.85;6.25;;;;;;;;;;10443870;28;20092;-88
2021/06/26 18:23:30;;;;;;;6.40;5.80;;;;;;;;;;10443761;28;20033;-87
2021/06/26 18:28:34;;;;;;;7.87;7.10;;;;;;;;;;10460506;28;20513;-88
2021/06/26 18:33:37;;;;;;;7.13;6.53;;;;;;;;;;10443259;28;20072;-88
2021/06/26 18:38:39;;;;;;;5.72;5.22;;;;;;;;;;10442558;28;20211;-88
2021/06/26 18:43:41;;;;;;;6.43;5.82;;;;;;;;;;10442733;28;20067;-88
2021/06/26 18:48:47;;;;;;;5.35;4.90;;;;;;;;;;10442748;28;20040;-87
2021/06/26 18:53:48;;;;;;;6.25;5.75;;;;;;;;;;10433466;28;20090;-87
2021/06/26 18:58:53;;;;;;;5.25;4.85;;;;;;;;;;10450902;28;20106;-87
2021/06/26 19:03:55;;;;;;;6.78;6.00;;;;;;;;;;10451728;28;20033;-87
2021/06/26 19:08:59;;;;;;;5.82;5.32;;;;;;;;;;10450362;28;20048;-88
2021/06/26 19:14:01;;;;;;;6.28;5.68;;;;;;;;;;10451167;28;20040;-87
2021/06/26 19:19:03;;;;;;;6.57;5.63;;;;;;;;;;10467400;28;20029;-87
2021/06/26 19:24:09;;;;;;;6.88;5.80;;;;;;;;;;10450435;28;20040;-87
2021/06/26 19:29:16;;;;;;;6.78;6.07;;;;;;;;;;10448817;28;20372;-88
2021/06/26 19:34:47;;;;;;;6.72;5.75;;;;;;;;;;10469208;28;20056;-88
2021/06/26 19:39:56;;;;;;;7.32;6.68;;;;;;;;;;10465117;28;20033;-88
2021/06/26 19:44:57;;;;;;;6.15;5.57;;;;;;;;;;10447793;28;20041;-88
2021/06/26 19:49:58;;;;;;;7.22;6.53;;;;;;;;;;10447396;28;20040;-88
2021/06/26 19:55:09;;;;;;;6.40;5.78;;;;;;;;;;10451262;28;20028;-87
2021/06/26 20:00:12;;;;;;;6.32;5.72;;;;;;;;;;10474172;28;20144;-87
2021/06/26 20:05:24;;;;;;;5.22;4.82;;;;;;;;;;10473202;28;20063;-87
2021/06/26 20:39:01;;;;;;;8.40;7.65;;;;;;;;;;10467316;28;20063;-86
2021/06/26 20:44:11;;;;;;;6.07;5.57;;;;;;;;;;10444949;28;20037;-86
2021/06/26 20:49:13;;;;;;;6.50;5.95;;;;;;;;;;10429375;28;20037;-86
2021/06/26 20:54:14;;;;;;;7.03;6.43;;;;;;;;;;10428844;28;20406;-86
2021/06/26 20:59:19;;;;;;;6.65;6.03;;;;;;;;;;10445808;28;20170;-87
2021/06/26 21:04:21;;;;;;;8.23;7.38;;;;;;;;;;10446429;28;20037;-86
2021/06/26 21:09:24;;;;;;;7.32;6.63;;;;;;;;;;10448504;28;20036;-86
2021/06/26 21:14:25;;;;;;;7.40;6.80;;;;;;;;;;10447278;28;20116;-88
2021/06/26 21:19:26;;;;;;;7.85;7.25;;;;;;;;;;10446658;28;20040;-88
2021/06/26 21:24:36;;;;;;;8.00;7.30;;;;;;;;;;10447414;28;20128;-88
2021/06/26 21:29:39;;;;;;;6.38;5.80;;;;;;;;;;10447546;28;20029;-87
2021/06/26 21:34:40;;;;;;;7.68;6.53;;;;;;;;;;10445020;28;20494;-88
2021/06/26 21:39:41;;;;;;;8.20;7.03;;;;;;;;;;10445898;28;20078;-88
2021/06/26 21:44:43;;;;;;;8.18;7.40;;;;;;;;;;10464912;28;20052;-87
2021/06/26 21:49:47;;;;;;;11.65;10.63;;;;;;;;;;10447234;28;20041;-86
2021/06/26 21:54:49;;;;;;;7.40;6.18;;;;;;;;;;10451569;28;20033;-88
2021/06/26 21:59:50;;;;;;;7.30;6.63;;;;;;;;;;10448212;28;20048;-86
2021/06/26 22:05:09;;;;;;;6.93;6.25;;;;;;;;;;10467177;28;20112;-87
2021/06/26 22:10:10;;;;;;;8.60;7.80;;;;;;;;;;10451124;28;20029;-86
2021/06/26 22:15:13;;;;;;;6.80;6.20;;;;;;;;;;10446552;28;20112;-87
2021/06/26 22:20:56;;;;;;;7.18;6.45;;;;;;;;;;10468035;28;20035;-87
2021/06/26 22:26:00;;;;;;;8.85;8.02;;;;;;;;;;10452997;28;20043;-88
2021/06/26 22:31:01;;;;;;;9.10;8.20;;;;;;;;;;10459286;28;20037;-86
2021/06/26 22:36:02;;;;;;;8.10;7.30;;;;;;;;;;10459373;28;20190;-87
2021/06/26 22:41:13;;;;;;;8.20;7.40;;;;;;;;;;10458859;28;20113;-87
2021/06/26 22:46:14;;;;;;;8.85;8.00;;;;;;;;;;10468502;28;20052;-87
2021/06/26 22:51:22;;;;;;;8.95;8.07;;;;;;;;;;10485159;28;20037;-89
2021/06/26 22:56:23;;;;;;;7.50;6.77;;;;;;;;;;10482329;28;20014;-87
